createdAt,value
2018-06-22T00:02:23.600Z,1.80
2018-06-22T00:04:52.035Z,1.70
2018-06-22T00:07:20.539Z,1.60
2018-06-22T00:09:49.346Z,2.13
2018-06-22T00:12:17.989Z,1.97
2018-06-22T00:14:46.757Z,1.53
2018-06-22T00:17:15.162Z,1.50
2018-06-22T00:19:43.597Z,2.17
2018-06-22T00:22:11.972Z,1.57
2018-06-22T00:24:40.343Z,1.90
2018-06-22T00:27:09.291Z,1.77
2018-06-22T00:29:37.712Z,1.70
2018-06-22T00:32:06.344Z,1.97
2018-06-22T00:34:34.769Z,2.10
2018-06-22T00:37:03.522Z,1.40
2018-06-22T00:39:32.017Z,1.80
2018-06-22T00:42:01.101Z,1.37
2018-06-22T00:44:29.480Z,1.73
2018-06-22T00:46:57.986Z,1.67
2018-06-22T00:49:26.076Z,1.43
2018-06-22T00:51:55.068Z,1.60
2018-06-22T00:54:23.469Z,1.80
2018-06-22T00:56:51.931Z,1.67
2018-06-22T00:59:20.629Z,1.60
2018-06-22T01:01:49.372Z,1.37
2018-06-22T01:04:18.479Z,1.67
2018-06-22T01:06:46.930Z,1.47
2018-06-22T01:09:15.408Z,1.83
2018-06-22T01:11:43.900Z,1.30
2018-06-22T01:14:12.597Z,1.60
2018-06-22T01:16:41.021Z,1.30
2018-06-22T01:19:09.667Z,1.67
2018-06-22T01:21:38.101Z,1.73
2018-06-22T01:24:06.881Z,1.60
2018-06-22T01:26:36.171Z,1.93
2018-06-22T01:29:10.331Z,1.60
2018-06-22T01:31:38.701Z,1.87
2018-06-22T01:34:08.400Z,2.20
2018-06-22T01:36:36.802Z,1.67
2018-06-22T01:39:07.521Z,1.97
2018-06-22T01:41:35.931Z,1.60
2018-06-22T01:44:04.846Z,1.80
2018-06-22T01:46:33.600Z,1.70
2018-06-22T01:49:02.115Z,1.90
2018-06-22T01:51:30.529Z,1.60
2018-06-22T01:53:59.561Z,1.47
2018-06-22T01:56:27.922Z,1.90
2018-06-22T01:58:56.346Z,1.93
2018-06-22T02:01:24.712Z,2.73
2018-06-22T02:03:53.289Z,1.63
2018-06-22T02:06:21.676Z,1.80
2018-06-22T02:08:50.079Z,1.80
2018-06-22T02:11:18.468Z,1.63
2018-06-22T02:13:47.003Z,2.03
2018-06-22T02:16:15.893Z,2.07
2018-06-22T02:18:44.356Z,1.70
2018-06-22T02:21:12.760Z,1.90
2018-06-22T02:23:41.765Z,1.83
2018-06-22T02:26:10.521Z,2.17
2018-06-22T02:28:38.947Z,1.87
2018-06-22T02:31:07.664Z,2.10
2018-06-22T02:33:36.097Z,1.70
2018-06-22T02:36:04.542Z,1.93
2018-06-22T02:38:32.989Z,1.90
2018-06-22T02:41:01.516Z,2.33
2018-06-22T02:43:29.896Z,1.80
2018-06-22T02:45:58.312Z,1.97
2018-06-22T02:48:26.667Z,2.13
2018-06-22T02:50:55.109Z,1.87
2018-06-22T02:53:23.487Z,1.70
2018-06-22T02:55:51.874Z,1.60
2018-06-22T02:58:20.248Z,1.80
2018-06-22T03:00:48.677Z,1.87
2018-06-22T03:03:17.073Z,2.20
2018-06-22T03:05:45.481Z,2.07
2018-06-22T03:08:13.847Z,2.63
2018-06-22T03:10:42.005Z,2.10
2018-06-22T03:13:10.393Z,1.73
2018-06-22T03:15:38.834Z,2.13
2018-06-22T03:18:07.240Z,2.10
2018-06-22T03:20:35.677Z,2.00
2018-06-22T03:23:04.130Z,1.97
2018-06-22T03:25:32.580Z,1.83
2018-06-22T03:28:00.968Z,2.33
2018-06-22T03:30:29.372Z,2.00
2018-06-22T03:32:57.775Z,2.03
2018-06-22T03:35:26.208Z,1.77
2018-06-22T03:37:54.920Z,1.87
2018-06-22T03:40:23.373Z,1.80
2018-06-22T03:42:51.750Z,1.70
2018-06-22T03:45:20.182Z,1.97
2018-06-22T03:47:48.542Z,1.77
2018-06-22T03:50:16.676Z,2.00
2018-06-22T03:52:45.048Z,1.93
2018-06-22T03:55:13.472Z,1.67
2018-06-22T03:57:41.592Z,1.50
2018-06-22T04:00:09.966Z,1.60
2018-06-22T04:02:38.411Z,1.63
2018-06-22T04:05:06.516Z,1.60
2018-06-22T04:07:34.917Z,1.90
2018-06-22T04:10:03.379Z,1.97
2018-06-22T04:12:31.805Z,1.80
2018-06-22T04:15:00.201Z,1.50
2018-06-22T04:17:28.618Z,2.10
2018-06-22T04:19:56.964Z,2.07
2018-06-22T04:22:25.140Z,2.43
2018-06-22T04:24:53.496Z,2.13
2018-06-22T04:27:21.889Z,2.43
2018-06-22T04:29:50.308Z,2.07
2018-06-22T04:32:18.676Z,2.10
2018-06-22T04:34:47.024Z,2.00
2018-06-22T04:37:15.408Z,1.90
2018-06-22T04:39:43.768Z,2.00
2018-06-22T04:42:12.137Z,2.30
2018-06-22T04:44:40.492Z,1.90
2018-06-22T04:47:08.876Z,2.13
2018-06-22T04:49:37.244Z,2.10
2018-06-22T04:52:05.651Z,1.60
2018-06-22T04:54:33.995Z,2.00
2018-06-22T04:57:02.363Z,1.97
2018-06-22T04:59:30.707Z,2.20
2018-06-22T05:01:59.083Z,2.07
2018-06-22T05:04:27.425Z,1.80
2018-06-22T05:06:55.898Z,1.50
2018-06-22T05:09:24.281Z,1.90
2018-06-22T05:11:52.732Z,2.10
2018-06-22T05:14:20.811Z,1.77
2018-06-22T05:16:48.919Z,1.77
2018-06-22T05:19:17.315Z,1.90
2018-06-22T05:21:45.671Z,1.63
2018-06-22T05:24:14.037Z,1.67
2018-06-22T05:26:42.415Z,1.80
2018-06-22T05:29:10.811Z,1.63
2018-06-22T05:31:39.159Z,1.67
2018-06-22T05:34:08.584Z,1.50
2018-06-22T05:36:37.261Z,1.43
2018-06-22T05:39:08.124Z,1.40
2018-06-22T05:41:36.563Z,1.67
2018-06-22T05:44:04.949Z,1.63
2018-06-22T05:46:33.279Z,1.17
2018-06-22T05:49:01.723Z,1.60
2018-06-22T05:51:29.790Z,1.40
2018-06-22T05:53:57.878Z,1.40
2018-06-22T05:56:26.229Z,1.00
2018-06-22T05:58:54.688Z,1.23
2018-06-22T06:01:23.025Z,1.10
2018-06-22T06:03:51.427Z,1.17
2018-06-22T06:06:19.757Z,1.57
2018-06-22T06:08:47.835Z,1.30
2018-06-22T06:11:15.975Z,0.90
2018-06-22T06:13:44.370Z,0.80
2018-06-22T06:16:12.688Z,0.90
2018-06-22T06:18:41.052Z,1.00
2018-06-22T06:21:09.379Z,0.60
2018-06-22T06:23:37.726Z,0.77
2018-06-22T06:26:06.103Z,1.00
2018-06-22T06:28:34.465Z,0.90
2018-06-22T06:31:02.800Z,1.00
2018-06-22T06:33:31.169Z,1.00
2018-06-22T06:35:59.527Z,0.90
2018-06-22T06:38:27.888Z,0.90
2018-06-22T06:40:56.260Z,1.03
2018-06-22T06:43:24.347Z,0.87
2018-06-22T06:45:52.671Z,0.70
2018-06-22T06:48:21.025Z,0.80
2018-06-22T06:50:49.365Z,1.00
2018-06-22T06:53:17.720Z,1.00
2018-06-22T06:55:46.068Z,1.10
2018-06-22T06:58:14.448Z,0.80
2018-06-22T07:00:42.780Z,1.10
2018-06-22T07:03:11.105Z,0.90
2018-06-22T07:05:39.472Z,0.90
2018-06-22T07:08:07.817Z,1.00
2018-06-22T07:10:35.984Z,1.00
2018-06-22T07:13:04.091Z,0.93
2018-06-22T07:15:36.680Z,1.10
2018-06-22T07:18:05.044Z,1.10
2018-06-22T07:20:33.398Z,1.23
2018-06-22T07:23:01.818Z,1.30
2018-06-22T07:25:30.268Z,1.10
2018-06-22T07:27:58.624Z,0.80
2018-06-22T07:30:26.982Z,1.10
2018-06-22T07:32:55.599Z,1.00
2018-06-22T07:35:23.690Z,1.20
2018-06-22T07:37:52.128Z,1.00
2018-06-22T07:40:20.964Z,1.23
2018-06-22T07:42:49.320Z,1.10
2018-06-22T07:45:17.712Z,1.13
2018-06-22T07:47:46.041Z,1.40
2018-06-22T07:50:14.398Z,1.40
2018-06-22T07:52:42.741Z,1.13
2018-06-22T07:55:10.849Z,1.20
2018-06-22T07:57:39.196Z,0.80
2018-06-22T08:00:07.351Z,1.50
2018-06-22T08:02:35.679Z,1.27
2018-06-22T08:05:04.068Z,1.70
2018-06-22T08:07:32.399Z,1.03
2018-06-22T08:10:00.499Z,0.90
2018-06-22T08:12:29.230Z,1.20
2018-06-22T08:14:57.588Z,1.20
2018-06-22T08:17:25.946Z,1.20
2018-06-22T08:19:54.314Z,1.33
2018-06-22T08:22:22.658Z,1.20
2018-06-22T08:24:51.013Z,1.10
2018-06-22T08:27:19.344Z,1.20
2018-06-22T08:29:47.437Z,1.07
2018-06-22T08:32:15.768Z,1.40
2018-06-22T08:34:44.128Z,1.33
2018-06-22T08:37:12.478Z,1.30
2018-06-22T08:39:40.853Z,1.50
2018-06-22T08:42:09.206Z,1.47
2018-06-22T08:44:37.548Z,1.47
2018-06-22T08:47:05.956Z,1.30
2018-06-22T08:49:34.014Z,1.30
2018-06-22T08:52:02.413Z,1.23
2018-06-22T08:54:30.756Z,1.27
2018-06-22T08:56:59.116Z,1.43
2018-06-22T08:59:27.460Z,1.30
2018-06-22T09:01:55.824Z,1.47
2018-06-22T09:04:24.164Z,1.60
2018-06-22T09:06:52.520Z,1.50
2018-06-22T09:09:20.869Z,1.60
2018-06-22T09:11:49.288Z,1.07
2018-06-22T09:14:17.633Z,1.30
2018-06-22T09:16:46.005Z,1.30
2018-06-22T09:19:14.352Z,1.57
2018-06-22T09:21:42.756Z,1.50
2018-06-22T09:24:11.076Z,1.40
2018-06-22T09:26:39.432Z,1.27
2018-06-22T09:29:07.496Z,1.30
2018-06-22T09:31:36.064Z,1.37
2018-06-22T09:34:04.410Z,1.73
2018-06-22T09:36:32.868Z,1.70
2018-06-22T09:39:01.212Z,2.03
2018-06-22T09:41:29.570Z,1.57
2018-06-22T09:43:57.911Z,1.30
2018-06-22T09:46:26.271Z,1.20
2018-06-22T09:48:54.827Z,1.23
2018-06-22T09:51:23.181Z,1.57
2018-06-22T09:53:51.521Z,1.57
2018-06-22T09:56:19.888Z,1.50
2018-06-22T09:58:48.211Z,1.50
2018-06-22T10:01:16.577Z,1.37
2018-06-22T10:03:44.909Z,1.30
2018-06-22T10:06:13.283Z,1.80
2018-06-22T10:08:41.612Z,1.63
2018-06-22T10:11:09.976Z,1.47
2018-06-22T10:13:38.345Z,1.67
2018-06-22T10:16:06.716Z,1.43
2018-06-22T10:18:34.778Z,1.50
2018-06-22T10:21:02.874Z,1.40
2018-06-22T10:23:31.245Z,1.00
2018-06-22T10:25:59.331Z,1.20
2018-06-22T10:28:27.690Z,1.10
2018-06-22T10:33:26.336Z,1.30
2018-06-22T10:35:54.696Z,1.50
2018-06-22T10:38:23.051Z,1.40
2018-06-22T10:40:51.439Z,1.70
2018-06-22T10:43:19.554Z,1.70
2018-06-22T10:45:47.942Z,1.43
2018-06-22T10:48:16.290Z,2.10
2018-06-22T10:50:44.627Z,1.70
2018-06-22T10:53:13.032Z,1.47
2018-06-22T10:55:41.367Z,1.70
2018-06-22T10:58:09.776Z,1.67
2018-06-22T11:00:37.860Z,1.80
2018-06-22T11:03:06.227Z,2.13
2018-06-22T11:05:34.560Z,1.60
2018-06-22T11:08:02.944Z,1.93
2018-06-22T11:10:31.307Z,1.40
2018-06-22T11:12:59.694Z,1.13
2018-06-22T11:15:28.019Z,1.30
2018-06-22T11:17:56.408Z,1.70
2018-06-22T11:20:24.855Z,1.37
2018-06-22T11:22:53.412Z,1.53
2018-06-22T11:25:22.776Z,1.70
2018-06-22T11:27:50.852Z,1.47
2018-06-22T11:30:18.917Z,1.40
2018-06-22T11:32:47.286Z,1.70
2018-06-22T11:35:15.621Z,1.50
2018-06-22T11:37:43.977Z,1.47
2018-06-22T11:40:12.325Z,1.33
2018-06-22T11:42:40.681Z,1.30
2018-06-22T11:45:09.031Z,1.30
2018-06-22T11:47:37.396Z,1.27
2018-06-22T11:50:05.788Z,1.47
2018-06-22T11:52:34.160Z,1.20
2018-06-22T11:55:02.488Z,1.37
2018-06-22T11:57:30.868Z,1.70
2018-06-22T11:59:59.569Z,1.47
2018-06-22T12:02:28.651Z,1.47
2018-06-22T12:04:56.994Z,1.70
2018-06-22T12:07:25.495Z,1.47
2018-06-22T12:09:55.028Z,1.40
2018-06-22T12:12:24.948Z,1.50
2018-06-22T12:14:54.740Z,1.60
2018-06-22T12:17:24.675Z,1.30
2018-06-22T12:19:54.302Z,1.67
2018-06-22T12:22:24.253Z,1.00
2018-06-22T12:24:52.592Z,1.80
2018-06-22T12:27:20.666Z,1.67
2018-06-22T12:29:49.100Z,1.60
2018-06-22T12:32:17.486Z,1.50
2018-06-22T12:34:45.853Z,1.50
2018-06-22T12:37:14.190Z,2.00
2018-06-22T12:39:42.601Z,1.70
2018-06-22T12:42:10.912Z,1.40
2018-06-22T12:44:39.281Z,1.93
2018-06-22T12:47:07.621Z,1.60
2018-06-22T12:49:35.972Z,2.03
2018-06-22T12:52:04.068Z,2.20
2018-06-22T12:54:32.437Z,1.77
2018-06-22T12:57:00.813Z,1.70
2018-06-22T12:59:28.925Z,2.00
2018-06-22T13:01:57.252Z,1.87
2018-06-22T13:04:25.616Z,1.90
2018-06-22T13:06:53.960Z,1.80
2018-06-22T13:09:22.316Z,1.70
2018-06-22T13:11:50.689Z,1.60
2018-06-22T13:14:19.222Z,1.47
2018-06-22T13:16:47.567Z,1.73
2018-06-22T13:19:15.933Z,1.60
2018-06-22T13:21:49.854Z,1.50
2018-06-22T13:24:18.637Z,1.90
2018-06-22T13:26:47.048Z,1.53
2018-06-22T13:29:15.453Z,1.57
2018-06-22T13:31:43.964Z,1.40
2018-06-22T13:34:13.176Z,1.60
2018-06-22T13:36:41.516Z,1.33
2018-06-22T13:39:12.908Z,1.50
2018-06-22T13:41:41.763Z,1.57
2018-06-22T13:44:10.481Z,1.40
2018-06-22T13:46:39.656Z,1.47
2018-06-22T13:49:08.802Z,1.80
2018-06-22T13:51:37.753Z,1.43
2018-06-22T13:54:06.280Z,1.70
2018-06-22T13:56:35.228Z,1.70
2018-06-22T13:59:03.665Z,1.50
2018-06-22T14:01:33.099Z,1.50
2018-06-22T14:04:06.716Z,1.50
2018-06-22T14:06:40.183Z,1.63
2018-06-22T14:09:11.610Z,1.53
2018-06-22T14:11:40.448Z,1.70
2018-06-22T14:14:08.823Z,2.10
2018-06-22T14:16:37.259Z,1.97
2018-06-22T14:19:05.836Z,1.60
2018-06-22T14:21:34.588Z,1.70
2018-06-22T14:24:02.957Z,2.27
2018-06-22T14:26:31.289Z,1.90
2018-06-22T14:28:59.748Z,2.00
2018-06-22T14:31:28.136Z,1.80
2018-06-22T14:33:56.481Z,1.83
2018-06-22T14:36:25.094Z,1.80
2018-06-22T14:38:53.748Z,1.90
2018-06-22T14:41:22.127Z,1.73
2018-06-22T14:43:50.488Z,1.80
2018-06-22T14:46:18.841Z,1.73
2018-06-22T14:48:47.206Z,1.50
2018-06-22T14:51:15.561Z,1.47
2018-06-22T14:53:49.088Z,1.80
2018-06-22T14:56:22.890Z,1.50
2018-06-22T14:58:56.556Z,1.53
2018-06-22T15:01:30.313Z,1.50
2018-06-22T15:04:03.945Z,1.50
2018-06-22T15:06:37.743Z,1.63
2018-06-22T15:09:08.219Z,1.53
2018-06-22T15:11:36.719Z,1.77
2018-06-22T15:14:05.368Z,1.60
2018-06-22T15:16:33.735Z,2.10
2018-06-22T15:19:02.068Z,1.53
2018-06-22T15:21:30.429Z,1.57
2018-06-22T15:23:58.768Z,1.80
2018-06-22T15:26:27.154Z,1.70
2018-06-22T15:28:55.515Z,1.90
2018-06-22T15:31:23.893Z,1.57
2018-06-22T15:33:57.699Z,2.10
2018-06-22T15:36:31.524Z,1.80
2018-06-22T15:39:05.231Z,1.30
2018-06-22T15:41:39.080Z,1.40
2018-06-22T15:44:12.800Z,1.60
2018-06-22T15:46:46.645Z,1.10
2018-06-22T15:49:20.175Z,1.40
2018-06-22T15:51:53.843Z,1.60
2018-06-22T15:54:27.507Z,1.63
2018-06-22T15:56:55.871Z,1.30
2018-06-22T15:59:23.927Z,1.73
2018-06-22T16:01:52.287Z,1.70
2018-06-22T16:04:20.619Z,1.80
2018-06-22T16:06:49.002Z,1.50
2018-06-22T16:09:17.344Z,1.67
2018-06-22T16:11:45.728Z,2.23
2018-06-22T16:14:19.204Z,1.67
2018-06-22T16:16:52.943Z,1.63
2018-06-22T16:19:26.486Z,1.90
2018-06-22T16:22:00.134Z,1.77
2018-06-22T16:24:33.993Z,1.33
2018-06-22T16:27:10.033Z,1.53
2018-06-22T16:29:38.378Z,2.10
2018-06-22T16:32:06.892Z,1.90
2018-06-22T16:34:34.937Z,2.30
2018-06-22T16:37:03.298Z,1.73
2018-06-22T16:39:31.634Z,1.90
2018-06-22T16:41:59.995Z,1.60
2018-06-22T16:44:28.360Z,1.83
2018-06-22T16:46:56.446Z,1.57
2018-06-22T16:49:24.776Z,1.70
2018-06-22T16:51:53.131Z,1.70
2018-06-22T16:54:21.460Z,2.10
2018-06-22T16:56:49.799Z,3.87
2018-06-22T16:59:18.124Z,1.97
2018-06-22T17:01:46.223Z,1.70
2018-06-22T17:04:16.106Z,2.07
2018-06-22T17:06:49.992Z,2.13
2018-06-22T17:09:23.527Z,1.93
2018-06-22T17:11:57.196Z,1.73
2018-06-22T17:14:31.040Z,1.60
2018-06-22T17:17:04.671Z,1.73
2018-06-22T17:19:33.008Z,1.90
2018-06-22T17:22:01.349Z,2.03
2018-06-22T17:24:29.713Z,1.80
2018-06-22T17:26:58.060Z,1.70
2018-06-22T17:29:26.143Z,1.67
2018-06-22T17:31:54.515Z,1.80
2018-06-22T17:34:22.880Z,1.70
2018-06-22T17:36:50.971Z,1.90
2018-06-22T17:39:19.351Z,1.50
2018-06-22T17:41:47.693Z,1.63
2018-06-22T17:44:16.052Z,1.53
2018-06-22T17:46:44.392Z,1.57
2018-06-22T17:49:12.757Z,1.90
2018-06-22T17:51:41.096Z,1.90
2018-06-22T17:54:09.452Z,1.90
2018-06-22T17:56:37.767Z,1.87
2018-06-22T17:59:11.663Z,1.87
2018-06-22T18:01:45.352Z,1.73
2018-06-22T18:05:23.150Z,1.80
2018-06-22T18:07:51.508Z,2.00
2018-06-22T18:10:25.323Z,1.90
2018-06-22T18:12:55.642Z,1.73
2018-06-22T18:15:23.937Z,1.50
2018-06-22T18:17:52.339Z,1.80
2018-06-22T18:20:20.781Z,1.40
2018-06-22T18:22:49.175Z,1.70
2018-06-22T18:25:17.479Z,1.70
2018-06-22T18:27:45.836Z,1.87
2018-06-22T18:30:15.381Z,1.60
2018-06-22T18:32:43.741Z,1.73
2018-06-22T18:35:13.504Z,1.67
2018-06-22T18:37:41.573Z,1.83
2018-06-22T18:40:10.504Z,1.70
2018-06-22T18:42:39.027Z,1.60
2018-06-22T18:45:08.871Z,1.67
2018-06-22T18:47:37.227Z,1.80
2018-06-22T18:50:05.832Z,2.23
2018-06-22T18:52:39.692Z,1.90
2018-06-22T18:55:13.439Z,1.80
2018-06-22T18:57:47.065Z,1.67
2018-06-22T19:00:20.879Z,2.00
2018-06-22T19:02:54.452Z,1.97
2018-06-22T19:05:22.809Z,2.03
2018-06-22T19:07:51.131Z,2.03
2018-06-22T19:10:19.493Z,1.90
2018-06-22T19:12:47.875Z,2.17
2018-06-22T19:15:16.239Z,2.33
2018-06-22T19:17:44.282Z,1.90
2018-06-22T19:20:12.647Z,1.60
2018-06-22T19:22:41.037Z,1.63
2018-06-22T19:25:09.403Z,1.80
2018-06-22T19:27:37.832Z,1.80
2018-06-22T19:30:06.274Z,1.43
2018-06-22T19:32:34.644Z,1.90
2018-06-22T19:35:08.458Z,2.00
2018-06-22T19:37:36.797Z,2.00
2018-06-22T19:40:05.273Z,1.93
2018-06-22T19:42:33.598Z,1.80
2018-06-22T19:45:07.251Z,1.67
2018-06-22T19:47:40.722Z,1.53
2018-06-22T19:50:14.456Z,1.93
2018-06-22T19:52:48.833Z,1.70
2018-06-22T19:55:17.155Z,1.77
2018-06-22T19:57:45.479Z,1.77
2018-06-22T20:00:13.836Z,1.70
2018-06-22T20:02:43.140Z,1.70
2018-06-22T20:05:11.557Z,2.00
2018-06-22T20:07:39.911Z,1.90
2018-06-22T20:10:08.595Z,1.87
2018-06-22T20:12:37.240Z,1.70
2018-06-22T20:15:05.348Z,1.87
2018-06-22T20:17:33.732Z,1.80
2018-06-22T20:20:02.113Z,2.07
2018-06-22T20:22:30.539Z,1.90
2018-06-22T20:25:04.464Z,2.00
2018-06-22T20:27:32.864Z,1.63
2018-06-22T20:30:01.260Z,1.90
2018-06-22T20:32:29.633Z,1.53
2018-06-22T20:35:03.312Z,2.00
2018-06-22T20:37:36.983Z,1.90
2018-06-22T20:40:10.744Z,2.07
2018-06-22T20:42:44.559Z,2.07
2018-06-22T20:45:18.200Z,1.80
2018-06-22T20:47:51.815Z,2.23
2018-06-22T20:50:25.671Z,1.83
2018-06-22T20:52:54.064Z,1.87
2018-06-22T20:55:22.407Z,1.97
2018-06-22T20:57:50.792Z,2.10
2018-06-22T21:00:19.135Z,1.80
2018-06-22T21:02:47.540Z,1.90
2018-06-22T21:05:15.951Z,1.90
2018-06-22T21:07:44.347Z,1.63
2018-06-22T21:10:12.741Z,2.27
2018-06-22T21:12:41.116Z,1.80
2018-06-22T21:15:09.451Z,2.00
2018-06-22T21:17:37.796Z,2.10
2018-06-22T21:20:06.124Z,2.40
2018-06-22T21:22:34.486Z,2.07
2018-06-22T21:25:02.849Z,2.23
2018-06-22T21:27:36.374Z,2.27
2018-06-22T21:30:11.065Z,1.80
2018-06-22T21:32:44.923Z,2.03
2018-06-22T21:35:18.480Z,1.93
2018-06-22T21:37:52.133Z,2.07
2018-06-22T21:40:20.467Z,2.77
2018-06-22T21:42:48.831Z,2.13
2018-06-22T21:45:17.289Z,2.30
2018-06-22T21:47:45.683Z,2.00
2018-06-22T21:50:14.016Z,2.07
2018-06-22T21:52:42.535Z,2.43
2018-06-22T21:55:11.002Z,1.87
2018-06-22T21:57:39.559Z,2.10
2018-06-22T22:00:09.786Z,2.60
2018-06-22T22:02:38.246Z,2.07
2018-06-22T22:05:06.356Z,2.40
2018-06-22T22:07:34.710Z,2.70
2018-06-22T22:10:03.096Z,2.03
2018-06-22T22:12:31.479Z,2.20
2018-06-22T22:14:59.800Z,2.23
2018-06-22T22:17:28.147Z,2.73
2018-06-22T22:19:56.512Z,2.73
2018-06-22T22:22:24.868Z,1.97
2018-06-22T22:24:52.942Z,2.10
2018-06-22T22:27:21.018Z,2.50
2018-06-22T22:29:49.354Z,2.30
2018-06-22T22:32:17.707Z,2.17
2018-06-22T22:34:46.071Z,2.37
2018-06-22T22:37:14.413Z,2.37
2018-06-22T22:39:42.756Z,2.30
2018-06-22T22:42:11.107Z,2.27
2018-06-22T22:44:39.605Z,2.03
2018-06-22T22:47:08.242Z,2.03
2018-06-22T22:49:36.908Z,2.20
2018-06-22T22:52:05.423Z,2.17
2018-06-22T22:54:33.707Z,2.13
2018-06-22T22:57:02.387Z,2.43
2018-06-22T22:59:31.103Z,2.50
2018-06-22T23:01:59.598Z,2.03
2018-06-22T23:04:28.311Z,2.10
2018-06-22T23:06:56.924Z,2.10
2018-06-22T23:09:25.199Z,2.53
2018-06-22T23:11:53.770Z,2.60
2018-06-22T23:14:22.123Z,2.37
2018-06-22T23:16:50.853Z,2.20
2018-06-22T23:19:19.232Z,2.40
2018-06-22T23:21:47.561Z,2.97
2018-06-22T23:24:15.908Z,2.50
2018-06-22T23:26:44.247Z,2.17
2018-06-22T23:29:12.610Z,2.60
2018-06-22T23:31:40.939Z,2.93
2018-06-22T23:34:09.301Z,3.00
2018-06-22T23:36:37.607Z,2.03
2018-06-22T23:39:08.454Z,2.63
2018-06-22T23:41:36.908Z,2.43
2018-06-22T23:44:04.996Z,2.13
2018-06-22T23:46:33.345Z,2.80
2018-06-22T23:49:01.713Z,2.77
2018-06-22T23:51:30.064Z,2.63
2018-06-22T23:53:58.419Z,2.60
2018-06-22T23:56:26.796Z,3.17
2018-06-22T23:58:55.236Z,2.40
